createdAt,value
2023-05-19T00:00:38.449Z,81.68
2023-05-19T00:01:45.033Z,81.67
2023-05-19T00:02:48.360Z,81.69
2023-05-19T00:03:56.439Z,81.74
2023-05-19T00:04:59.642Z,81.80
2023-05-19T00:06:04.284Z,81.73
2023-05-19T00:07:09.546Z,81.69
2023-05-19T00:08:13.185Z,81.69
2023-05-19T00:09:16.342Z,81.59
2023-05-19T00:10:19.876Z,81.59
2023-05-19T00:11:24.178Z,81.61
2023-05-19T00:12:27.688Z,81.61
2023-05-19T00:13:31.012Z,81.71
2023-05-19T00:14:34.205Z,81.72
2023-05-19T00:15:37.537Z,81.60
2023-05-19T00:16:40.787Z,81.66
2023-05-19T00:17:43.817Z,81.60
2023-05-19T00:18:46.698Z,81.42
2023-05-19T00:19:50.434Z,81.15
2023-05-19T00:20:53.755Z,81.12
2023-05-19T00:21:56.594Z,81.25
2023-05-19T00:22:59.424Z,81.25
2023-05-19T00:24:02.642Z,81.30
2023-05-19T00:25:07.567Z,81.23
2023-05-19T00:26:10.547Z,81.14
2023-05-19T00:27:13.429Z,81.03
2023-05-19T00:28:16.298Z,80.65
2023-05-19T00:29:20.379Z,80.44
2023-05-19T00:30:24.303Z,80.02
2023-05-19T00:31:27.409Z,79.18
2023-05-19T00:32:30.370Z,79.00
2023-05-19T00:33:35.099Z,78.34
2023-05-19T00:34:37.959Z,78.31
2023-05-19T00:35:41.960Z,77.37
2023-05-19T00:36:44.843Z,77.16
2023-05-19T00:37:47.972Z,77.12
2023-05-19T00:38:52.384Z,77.25
2023-05-19T00:39:55.196Z,77.47
2023-05-19T00:40:58.128Z,77.63
2023-05-19T00:42:01.184Z,77.59
2023-05-19T00:43:04.245Z,76.92
2023-05-19T00:44:08.424Z,76.91
2023-05-19T00:45:11.967Z,77.08
2023-05-19T00:46:14.952Z,76.93
2023-05-19T00:47:18.077Z,76.66
2023-05-19T00:48:20.991Z,76.01
2023-05-19T00:49:23.874Z,76.14
2023-05-19T00:50:28.629Z,76.18
2023-05-19T00:51:32.562Z,76.25
2023-05-19T00:52:35.430Z,76.15
2023-05-19T00:53:38.354Z,76.22
2023-05-19T00:54:41.445Z,76.28
2023-05-19T00:55:44.654Z,75.88
2023-05-19T00:56:47.550Z,76.17
2023-05-19T00:57:51.676Z,76.41
2023-05-19T00:58:55.525Z,76.51
2023-05-19T00:59:58.497Z,76.40
2023-05-19T01:01:05.273Z,76.42
2023-05-19T01:02:09.111Z,76.45
2023-05-19T01:03:13.192Z,76.28
2023-05-19T01:04:23.175Z,76.29
2023-05-19T01:05:26.148Z,76.37
2023-05-19T01:06:29.117Z,76.39
2023-05-19T01:07:32.005Z,76.22
2023-05-19T01:08:37.067Z,76.17
2023-05-19T01:09:41.963Z,75.95
2023-05-19T01:10:44.850Z,75.99
2023-05-19T01:11:47.766Z,76.08
2023-05-19T01:12:50.649Z,76.26
2023-05-19T01:13:53.796Z,76.47
2023-05-19T01:14:57.520Z,76.77
2023-05-19T01:16:08.164Z,76.93
2023-05-19T01:17:15.596Z,77.01
2023-05-19T01:18:30.888Z,77.09
2023-05-19T01:19:42.671Z,77.19
2023-05-19T01:21:08.184Z,77.24
2023-05-19T01:22:16.659Z,77.44
2023-05-19T01:23:43.807Z,77.50
2023-05-19T01:24:59.314Z,77.32
2023-05-19T01:26:14.287Z,77.29
2023-05-19T01:27:28.361Z,77.38
2023-05-19T01:28:59.131Z,77.55
2023-05-19T01:30:20.718Z,77.61
2023-05-19T01:31:25.952Z,77.80
2023-05-19T01:32:31.251Z,78.03
2023-05-19T01:33:35.371Z,78.04
2023-05-19T01:34:45.513Z,78.01
2023-05-19T01:35:49.878Z,77.98
2023-05-19T01:36:53.545Z,78.01
2023-05-19T01:37:59.303Z,77.92
2023-05-19T01:39:03.412Z,78.01
2023-05-19T01:40:08.758Z,78.14
2023-05-19T01:41:13.566Z,78.22
2023-05-19T01:42:17.041Z,78.27
2023-05-19T01:43:25.282Z,78.39
2023-05-19T01:44:28.214Z,78.44
2023-05-19T01:45:33.340Z,78.38
2023-05-19T01:46:36.748Z,78.40
2023-05-19T01:47:43.112Z,78.37
2023-05-19T01:48:47.046Z,78.28
2023-05-19T01:49:49.929Z,78.22
2023-05-19T01:50:53.064Z,78.22
2023-05-19T01:51:56.039Z,78.35
2023-05-19T01:53:00.232Z,78.39
2023-05-19T01:54:03.236Z,78.37
2023-05-19T01:55:07.276Z,78.21
2023-05-19T01:56:10.227Z,78.09
2023-05-19T01:57:24.473Z,77.94
2023-05-19T01:58:45.209Z,77.98
2023-05-19T02:00:11.824Z,78.06
2023-05-19T02:01:23.662Z,78.11
2023-05-19T02:02:39.637Z,78.07
2023-05-19T02:04:04.628Z,78.03
2023-05-19T02:05:41.795Z,78.33
2023-05-19T02:06:51.123Z,78.48
2023-05-19T02:08:01.643Z,78.57
2023-05-19T02:09:14.658Z,78.60
2023-05-19T02:10:25.192Z,78.61
2023-05-19T02:11:41.234Z,78.57
2023-05-19T02:12:47.080Z,78.68
2023-05-19T02:13:55.770Z,78.76
2023-05-19T02:15:29.859Z,78.77
2023-05-19T02:16:34.191Z,78.83
2023-05-19T02:17:42.713Z,78.80
2023-05-19T02:18:47.511Z,78.78
2023-05-19T02:19:50.419Z,78.77
2023-05-19T02:20:53.458Z,78.70
2023-05-19T02:21:56.557Z,78.64
2023-05-19T02:22:59.447Z,78.54
2023-05-19T02:24:02.397Z,78.50
2023-05-19T02:25:05.577Z,78.55
2023-05-19T02:26:09.892Z,78.54
2023-05-19T02:27:12.794Z,78.47
2023-05-19T02:28:15.730Z,78.55
2023-05-19T02:29:18.777Z,78.54
2023-05-19T02:30:21.695Z,78.34
2023-05-19T02:31:24.637Z,78.19
2023-05-19T02:32:27.571Z,78.10
2023-05-19T02:33:31.691Z,77.99
2023-05-19T02:34:34.642Z,77.71
2023-05-19T02:35:37.562Z,77.51
2023-05-19T02:36:44.278Z,77.35
2023-05-19T02:37:47.319Z,77.22
2023-05-19T02:38:50.169Z,77.28
2023-05-19T02:39:53.074Z,77.49
2023-05-19T02:40:55.920Z,77.56
2023-05-19T02:41:58.774Z,77.72
2023-05-19T02:43:01.778Z,77.67
2023-05-19T02:44:04.756Z,77.56
2023-05-19T02:45:07.972Z,77.42
2023-05-19T02:46:10.899Z,77.48
2023-05-19T02:47:17.288Z,77.60
2023-05-19T02:48:20.192Z,77.60
2023-05-19T02:49:23.039Z,77.50
2023-05-19T02:50:25.914Z,77.47
2023-05-19T02:51:28.808Z,77.45
2023-05-19T02:52:31.795Z,77.52
2023-05-19T02:53:34.735Z,77.63
2023-05-19T02:54:37.571Z,77.65
2023-05-19T02:55:40.456Z,77.69
2023-05-19T02:56:43.370Z,77.80
2023-05-19T02:57:46.315Z,77.87
2023-05-19T02:58:49.168Z,77.90
2023-05-19T02:59:52.284Z,77.83
2023-05-19T03:00:55.126Z,77.88
2023-05-19T03:02:03.133Z,78.01
2023-05-19T03:03:06.105Z,78.06
2023-05-19T03:04:09.149Z,78.14
2023-05-19T03:05:12.268Z,78.11
2023-05-19T03:06:15.442Z,78.08
2023-05-19T03:07:18.298Z,78.10
2023-05-19T03:08:21.938Z,78.13
2023-05-19T03:09:24.820Z,78.03
2023-05-19T03:10:27.697Z,78.04
2023-05-19T03:11:32.198Z,78.19
2023-05-19T03:12:35.263Z,78.32
2023-05-19T03:13:38.182Z,78.40
2023-05-19T03:14:41.065Z,78.39
2023-05-19T03:15:44.425Z,78.41
2023-05-19T03:16:47.301Z,78.29
2023-05-19T03:17:50.341Z,78.16
2023-05-19T03:18:53.694Z,77.85
2023-05-19T03:19:57.043Z,77.83
2023-05-19T03:20:59.933Z,77.79
2023-05-19T03:22:02.873Z,77.83
2023-05-19T03:23:05.800Z,77.81
2023-05-19T03:24:08.730Z,77.82
2023-05-19T03:25:11.842Z,77.85
2023-05-19T03:26:14.727Z,77.89
2023-05-19T03:27:17.892Z,77.93
2023-05-19T03:28:21.004Z,77.96
2023-05-19T03:29:24.004Z,78.13
2023-05-19T03:30:26.939Z,78.16
2023-05-19T03:31:31.866Z,78.15
2023-05-19T03:32:35.273Z,78.17
2023-05-19T03:33:38.248Z,78.20
2023-05-19T03:34:41.133Z,78.28
2023-05-19T03:35:45.581Z,78.47
2023-05-19T03:36:51.103Z,78.55
2023-05-19T03:37:53.970Z,78.57
2023-05-19T03:38:56.863Z,78.58
2023-05-19T03:40:00.901Z,78.55
2023-05-19T03:41:03.807Z,78.56
2023-05-19T03:42:06.980Z,78.59
2023-05-19T03:43:10.003Z,78.66
2023-05-19T03:44:12.867Z,78.71
2023-05-19T03:45:15.766Z,78.70
2023-05-19T03:46:18.672Z,78.73
2023-05-19T03:47:21.821Z,78.77
2023-05-19T03:48:24.764Z,78.82
2023-05-19T03:49:27.665Z,78.85
2023-05-19T03:50:33.072Z,78.96
2023-05-19T03:51:36.213Z,79.00
2023-05-19T03:52:39.917Z,79.01
2023-05-19T03:53:42.712Z,79.01
2023-05-19T03:54:46.191Z,79.04
2023-05-19T03:55:50.933Z,79.11
2023-05-19T03:56:53.813Z,79.24
2023-05-19T03:57:57.496Z,79.36
2023-05-19T03:59:00.722Z,79.55
2023-05-19T04:00:04.794Z,79.80
2023-05-19T04:01:07.816Z,79.98
2023-05-19T04:02:11.006Z,79.97
2023-05-19T04:03:14.092Z,79.96
2023-05-19T04:04:17.152Z,79.93
2023-05-19T04:05:20.282Z,79.82
2023-05-19T04:06:23.405Z,79.75
2023-05-19T04:07:26.252Z,79.71
2023-05-19T04:08:29.129Z,79.62
2023-05-19T04:09:33.775Z,79.54
2023-05-19T04:10:36.630Z,79.47
2023-05-19T04:11:40.968Z,79.50
2023-05-19T04:12:43.914Z,79.52
2023-05-19T04:13:47.088Z,79.52
2023-05-19T04:14:49.972Z,79.48
2023-05-19T04:15:53.233Z,79.46
2023-05-19T04:16:56.366Z,79.48
2023-05-19T04:17:59.249Z,79.46
2023-05-19T04:19:02.513Z,79.42
2023-05-19T04:20:07.381Z,79.48
2023-05-19T04:21:10.250Z,79.54
2023-05-19T04:22:13.144Z,79.54
2023-05-19T04:23:16.018Z,79.54
2023-05-19T04:24:18.891Z,79.56
2023-05-19T04:25:21.887Z,79.65
2023-05-19T04:26:26.216Z,79.73
2023-05-19T04:27:30.387Z,79.78
2023-05-19T04:28:33.446Z,79.81
2023-05-19T04:29:36.948Z,79.82
2023-05-19T04:30:39.930Z,79.82
2023-05-19T04:31:43.244Z,79.61
2023-05-19T04:32:46.137Z,79.43
2023-05-19T04:33:52.142Z,79.31
2023-05-19T04:34:55.141Z,79.15
2023-05-19T04:35:58.184Z,79.05
2023-05-19T04:37:01.100Z,79.06
2023-05-19T04:38:04.159Z,79.06
2023-05-19T04:39:10.316Z,78.88
2023-05-19T04:40:14.467Z,78.67
2023-05-19T04:41:17.755Z,78.03
2023-05-19T04:42:20.777Z,77.31
2023-05-19T04:43:23.676Z,77.22
2023-05-19T04:44:26.705Z,77.16
2023-05-19T04:45:30.462Z,77.11
2023-05-19T04:46:33.621Z,77.00
2023-05-19T04:47:40.053Z,77.11
2023-05-19T04:48:42.970Z,77.24
2023-05-19T04:49:48.674Z,77.34
2023-05-19T04:50:53.255Z,77.45
2023-05-19T04:51:57.876Z,77.55
2023-05-19T04:53:01.716Z,77.57
2023-05-19T04:54:05.313Z,77.60
2023-05-19T04:55:08.933Z,77.65
2023-05-19T04:56:14.909Z,77.74
2023-05-19T04:57:17.893Z,77.85
2023-05-19T04:58:21.178Z,78.03
2023-05-19T04:59:24.790Z,78.05
2023-05-19T05:00:27.894Z,78.07
2023-05-19T05:01:32.508Z,78.07
2023-05-19T05:02:35.654Z,78.10
2023-05-19T05:03:38.816Z,78.14
2023-05-19T05:04:44.769Z,78.19
2023-05-19T05:05:47.761Z,78.15
2023-05-19T05:06:51.067Z,78.11
2023-05-19T05:07:55.334Z,77.61
2023-05-19T05:08:58.535Z,77.63
2023-05-19T05:10:01.438Z,77.75
2023-05-19T05:11:04.654Z,77.67
2023-05-19T05:12:09.260Z,77.63
2023-05-19T05:13:12.387Z,77.65
2023-05-19T05:14:15.637Z,77.57
2023-05-19T05:15:19.204Z,77.99
2023-05-19T05:16:22.509Z,78.19
2023-05-19T05:17:26.918Z,78.12
2023-05-19T05:18:30.011Z,77.94
2023-05-19T05:19:33.950Z,77.79
2023-05-19T05:20:37.126Z,77.75
2023-05-19T05:21:40.167Z,77.65
2023-05-19T05:22:43.401Z,77.56
2023-05-19T05:23:46.555Z,77.37
2023-05-19T05:24:50.605Z,77.22
2023-05-19T05:25:53.740Z,77.10
2023-05-19T05:26:56.718Z,77.09
2023-05-19T05:28:00.295Z,77.02
2023-05-19T05:29:04.359Z,76.95
2023-05-19T05:30:08.097Z,76.96
2023-05-19T05:31:10.973Z,76.89
2023-05-19T05:32:13.896Z,76.87
2023-05-19T05:33:17.413Z,76.87
2023-05-19T05:34:20.387Z,76.97
2023-05-19T05:35:25.333Z,76.98
2023-05-19T05:36:28.214Z,77.04
2023-05-19T05:37:32.027Z,77.05
2023-05-19T05:38:35.150Z,77.07
2023-05-19T05:39:38.014Z,77.09
2023-05-19T05:40:40.920Z,77.09
2023-05-19T05:41:43.814Z,76.96
2023-05-19T05:42:46.888Z,76.80
2023-05-19T05:43:49.835Z,76.67
2023-05-19T05:44:52.818Z,76.65
2023-05-19T05:45:55.775Z,76.71
2023-05-19T05:46:59.053Z,76.78
2023-05-19T05:48:02.240Z,76.81
2023-05-19T05:49:05.514Z,76.79
2023-05-19T05:50:10.809Z,76.40
2023-05-19T05:51:14.282Z,76.22
2023-05-19T05:52:18.899Z,76.51
2023-05-19T05:53:22.875Z,77.15
2023-05-19T05:54:26.214Z,77.18
2023-05-19T05:55:29.465Z,77.24
2023-05-19T05:56:34.967Z,76.65
2023-05-19T05:57:37.883Z,76.65
2023-05-19T05:58:41.933Z,76.70
2023-05-19T05:59:46.678Z,76.68
2023-05-19T06:00:50.575Z,76.48
2023-05-19T06:01:53.517Z,76.62
2023-05-19T06:02:56.517Z,76.66
2023-05-19T06:03:59.425Z,76.86
2023-05-19T06:05:02.329Z,76.86
2023-05-19T06:06:05.781Z,76.82
2023-05-19T06:07:08.813Z,76.71
2023-05-19T06:08:11.800Z,76.71
2023-05-19T06:09:14.652Z,76.61
2023-05-19T06:10:18.122Z,76.56
2023-05-19T06:11:21.063Z,76.55
2023-05-19T06:12:24.355Z,76.55
2023-05-19T06:13:27.371Z,76.64
2023-05-19T06:14:30.243Z,76.68
2023-05-19T06:15:33.144Z,76.69
2023-05-19T06:16:36.076Z,76.92
2023-05-19T06:17:39.316Z,76.89
2023-05-19T06:18:42.250Z,76.91
2023-05-19T06:19:45.150Z,76.78
2023-05-19T06:20:48.112Z,76.81
2023-05-19T06:21:50.960Z,76.85
2023-05-19T06:22:53.869Z,76.90
2023-05-19T06:23:56.767Z,77.19
2023-05-19T06:24:59.785Z,77.13
2023-05-19T06:26:02.777Z,76.01
2023-05-19T06:27:05.914Z,75.52
2023-05-19T06:28:08.820Z,75.63
2023-05-19T06:29:11.710Z,75.92
2023-05-19T06:30:15.064Z,76.18
2023-05-19T06:31:18.199Z,75.52
2023-05-19T06:32:21.327Z,75.36
2023-05-19T06:33:26.102Z,75.32
2023-05-19T06:34:30.319Z,75.45
2023-05-19T06:35:33.231Z,75.93
2023-05-19T06:36:37.054Z,76.30
2023-05-19T06:37:39.947Z,76.51
2023-05-19T06:38:42.816Z,76.30
2023-05-19T06:39:45.624Z,75.84
2023-05-19T06:40:49.425Z,75.93
2023-05-19T06:41:52.419Z,75.66
2023-05-19T06:42:55.336Z,75.18
2023-05-19T06:43:58.333Z,75.43
2023-05-19T06:45:01.249Z,75.76
2023-05-19T06:46:04.457Z,74.58
2023-05-19T06:47:07.408Z,74.34
2023-05-19T06:48:10.476Z,74.01
2023-05-19T06:49:13.397Z,73.90
2023-05-19T06:50:16.550Z,74.77
2023-05-19T06:51:22.995Z,74.71
2023-05-19T06:52:26.090Z,74.19
2023-05-19T06:53:28.941Z,73.90
2023-05-19T06:54:31.990Z,73.77
2023-05-19T06:55:39.117Z,73.89
2023-05-19T06:56:46.933Z,74.19
2023-05-19T06:57:49.936Z,74.29
2023-05-19T06:58:52.886Z,74.34
2023-05-19T06:59:55.766Z,74.44
2023-05-19T07:00:58.603Z,74.51
2023-05-19T07:02:01.684Z,74.66
2023-05-19T07:03:04.867Z,74.83
2023-05-19T07:04:07.934Z,74.81
2023-05-19T07:05:11.648Z,74.89
2023-05-19T07:06:14.786Z,75.24
2023-05-19T07:07:17.955Z,75.28
2023-05-19T07:08:20.811Z,74.86
2023-05-19T07:09:23.641Z,74.42
2023-05-19T07:10:27.260Z,74.34
2023-05-19T07:11:30.120Z,74.39
2023-05-19T07:12:32.957Z,74.58
2023-05-19T07:13:35.904Z,74.26
2023-05-19T07:14:40.151Z,74.17
2023-05-19T07:15:43.088Z,74.15
2023-05-19T07:16:45.973Z,74.04
2023-05-19T07:17:48.978Z,74.02
2023-05-19T07:18:51.926Z,74.19
2023-05-19T07:19:54.792Z,74.00
2023-05-19T07:20:58.846Z,74.00
2023-05-19T07:22:02.093Z,73.96
2023-05-19T07:23:05.002Z,74.04
2023-05-19T07:24:08.238Z,74.04
2023-05-19T07:25:11.386Z,74.42
2023-05-19T07:26:14.295Z,73.63
2023-05-19T07:27:17.168Z,72.71
2023-05-19T07:28:20.058Z,73.30
2023-05-19T07:29:22.891Z,73.43
2023-05-19T07:30:26.066Z,73.97
2023-05-19T07:31:28.932Z,73.40
2023-05-19T07:32:31.988Z,73.66
2023-05-19T07:33:34.852Z,73.62
2023-05-19T07:34:38.100Z,71.34
2023-05-19T07:35:41.160Z,72.08
2023-05-19T07:36:44.119Z,72.44
2023-05-19T07:37:47.174Z,72.30
2023-05-19T07:38:50.301Z,72.27
2023-05-19T07:39:53.141Z,72.42
2023-05-19T07:40:55.989Z,72.48
2023-05-19T07:41:58.903Z,72.51
2023-05-19T07:43:01.822Z,72.70
2023-05-19T07:44:08.819Z,71.96
2023-05-19T07:45:12.760Z,72.32
2023-05-19T07:46:15.729Z,72.70
2023-05-19T07:47:18.589Z,72.12
2023-05-19T07:48:23.677Z,71.92
2023-05-19T07:49:26.511Z,72.16
2023-05-19T07:50:29.472Z,71.81
2023-05-19T07:51:33.077Z,72.52
2023-05-19T07:52:35.912Z,73.23
2023-05-19T07:53:38.907Z,73.19
2023-05-19T07:54:41.800Z,73.18
2023-05-19T07:55:44.670Z,73.30
2023-05-19T07:56:48.422Z,73.11
2023-05-19T07:57:52.166Z,73.03
2023-05-19T07:58:55.048Z,72.67
2023-05-19T07:59:58.032Z,72.86
2023-05-19T08:01:01.752Z,71.62
2023-05-19T08:02:04.729Z,71.57
2023-05-19T08:03:09.272Z,70.70
2023-05-19T08:04:13.277Z,70.98
2023-05-19T08:05:16.331Z,71.81
2023-05-19T08:06:19.262Z,71.29
2023-05-19T08:07:22.260Z,70.98
2023-05-19T08:08:25.228Z,71.43
2023-05-19T08:09:28.070Z,71.03
2023-05-19T08:10:31.449Z,70.72
2023-05-19T08:11:34.621Z,71.43
2023-05-19T08:12:37.511Z,71.37
2023-05-19T08:13:40.629Z,71.34
2023-05-19T08:14:43.591Z,71.53
2023-05-19T08:15:46.483Z,70.67
2023-05-19T08:16:50.185Z,70.24
2023-05-19T08:17:53.177Z,70.76
2023-05-19T08:18:56.496Z,71.34
2023-05-19T08:19:59.622Z,71.62
2023-05-19T08:21:02.736Z,70.21
2023-05-19T08:22:05.789Z,69.05
2023-05-19T08:23:08.636Z,68.55
2023-05-19T08:24:11.883Z,68.25
2023-05-19T08:25:15.146Z,68.77
2023-05-19T08:26:18.063Z,67.86
2023-05-19T08:27:20.921Z,67.98
2023-05-19T08:28:23.753Z,67.96
2023-05-19T08:29:26.895Z,68.13
2023-05-19T08:30:29.784Z,69.31
2023-05-19T08:31:32.898Z,69.54
2023-05-19T08:32:35.817Z,70.34
2023-05-19T08:33:38.703Z,70.72
2023-05-19T08:34:42.619Z,69.56
2023-05-19T08:35:45.469Z,68.46
2023-05-19T08:36:48.981Z,67.33
2023-05-19T08:37:51.788Z,67.69
2023-05-19T08:38:54.668Z,66.79
2023-05-19T08:39:58.541Z,67.40
2023-05-19T08:41:01.377Z,68.48
2023-05-19T08:42:04.303Z,69.29
2023-05-19T08:43:07.195Z,69.36
2023-05-19T08:44:10.250Z,69.61
2023-05-19T08:45:13.847Z,68.87
2023-05-19T08:46:18.058Z,68.55
2023-05-19T08:47:21.341Z,67.72
2023-05-19T08:48:24.228Z,67.93
2023-05-19T08:49:32.318Z,68.26
2023-05-19T08:50:40.605Z,68.46
2023-05-19T08:51:48.406Z,68.62
2023-05-19T08:52:57.001Z,68.90
2023-05-19T08:54:12.283Z,70.29
2023-05-19T08:55:27.312Z,69.29
2023-05-19T08:56:31.438Z,68.51
2023-05-19T08:57:35.464Z,68.94
2023-05-19T08:58:45.350Z,68.85
2023-05-19T08:59:50.232Z,68.15
2023-05-19T09:00:54.975Z,68.33
2023-05-19T09:01:58.559Z,68.17
2023-05-19T09:03:17.422Z,68.28
2023-05-19T09:04:22.018Z,68.31
2023-05-19T09:05:25.339Z,67.77
2023-05-19T09:06:28.745Z,67.65
2023-05-19T09:07:36.066Z,68.08
2023-05-19T09:08:39.213Z,68.42
2023-05-19T09:09:44.963Z,68.31
2023-05-19T09:10:47.893Z,67.69
2023-05-19T09:11:50.894Z,66.90
2023-05-19T09:12:54.966Z,67.19
2023-05-19T09:13:57.851Z,66.81
2023-05-19T09:15:00.777Z,64.85
2023-05-19T09:16:04.679Z,64.08
2023-05-19T09:17:08.386Z,63.43
2023-05-19T09:18:14.244Z,63.50
2023-05-19T09:19:17.401Z,64.37
2023-05-19T09:20:20.430Z,64.53
2023-05-19T09:21:32.336Z,64.89
2023-05-19T09:22:38.448Z,64.12
2023-05-19T09:23:41.324Z,63.71
2023-05-19T09:24:45.241Z,64.74
2023-05-19T09:25:50.482Z,65.33
2023-05-19T09:26:57.632Z,66.32
2023-05-19T09:28:01.376Z,65.60
2023-05-19T09:29:04.474Z,65.66
2023-05-19T09:30:11.652Z,66.63
2023-05-19T09:31:14.730Z,66.72
2023-05-19T09:32:27.519Z,66.87
2023-05-19T09:33:32.317Z,66.31
2023-05-19T09:34:35.328Z,64.10
2023-05-19T09:35:38.526Z,62.64
2023-05-19T09:36:43.551Z,62.77
2023-05-19T09:37:46.447Z,62.11
2023-05-19T09:38:49.309Z,64.43
2023-05-19T09:39:54.127Z,65.39
2023-05-19T09:41:01.696Z,64.14
2023-05-19T09:42:06.698Z,62.03
2023-05-19T09:43:10.086Z,62.18
2023-05-19T09:44:30.582Z,62.76
2023-05-19T09:45:33.911Z,62.22
2023-05-19T09:46:37.997Z,61.99
2023-05-19T09:47:42.654Z,62.13
2023-05-19T09:48:46.104Z,62.88
2023-05-19T09:49:49.114Z,62.99
2023-05-19T09:50:53.144Z,63.62
2023-05-19T09:52:00.607Z,63.31
2023-05-19T09:53:05.191Z,60.78
2023-05-19T09:54:11.347Z,60.15
2023-05-19T09:55:14.872Z,61.57
2023-05-19T09:56:17.840Z,61.43
2023-05-19T09:57:28.300Z,60.13
2023-05-19T09:58:38.731Z,60.03
2023-05-19T09:59:42.727Z,60.37
2023-05-19T10:00:46.787Z,61.00
2023-05-19T10:01:50.216Z,61.61
2023-05-19T10:02:54.101Z,61.63
2023-05-19T10:03:57.875Z,60.93
2023-05-19T10:05:01.775Z,60.32
2023-05-19T10:06:10.465Z,60.05
2023-05-19T10:07:15.919Z,59.70
2023-05-19T10:08:19.260Z,60.27
2023-05-19T10:09:26.382Z,59.73
2023-05-19T10:10:30.197Z,59.99
2023-05-19T10:11:33.385Z,61.51
2023-05-19T10:12:36.233Z,61.93
2023-05-19T10:13:40.536Z,60.35
2023-05-19T10:14:43.769Z,60.92
2023-05-19T10:15:58.296Z,58.71
2023-05-19T10:17:02.670Z,59.32
2023-05-19T10:18:06.906Z,59.85
2023-05-19T10:19:10.776Z,59.95
2023-05-19T10:20:18.273Z,61.17
2023-05-19T10:21:21.114Z,60.40
2023-05-19T10:22:24.049Z,60.92
2023-05-19T10:23:27.395Z,61.00
2023-05-19T10:24:30.278Z,61.74
2023-05-19T10:25:35.906Z,61.94
2023-05-19T10:26:41.756Z,62.38
2023-05-19T10:27:51.331Z,61.57
2023-05-19T10:28:54.546Z,62.34
2023-05-19T10:30:00.444Z,62.55
2023-05-19T10:31:06.364Z,62.44
2023-05-19T10:32:16.740Z,61.45
2023-05-19T10:33:30.142Z,60.07
2023-05-19T10:34:54.763Z,59.86
2023-05-19T10:36:32.315Z,59.97
2023-05-19T10:37:44.017Z,60.53
2023-05-19T10:38:57.805Z,60.17
2023-05-19T10:40:01.849Z,59.90
2023-05-19T10:41:10.458Z,59.72
2023-05-19T10:42:42.263Z,60.42
2023-05-19T10:44:08.878Z,60.23
2023-05-19T10:45:22.316Z,60.22
2023-05-19T10:46:28.161Z,60.43
2023-05-19T10:47:31.550Z,60.03
2023-05-19T10:48:37.423Z,59.98
2023-05-19T10:49:41.410Z,59.89
2023-05-19T10:50:48.318Z,59.12
2023-05-19T10:51:53.858Z,59.17
2023-05-19T10:52:57.743Z,59.52
2023-05-19T10:54:04.297Z,59.96
2023-05-19T10:55:11.421Z,59.84
2023-05-19T10:56:35.294Z,59.11
2023-05-19T10:57:38.384Z,57.60
2023-05-19T10:58:47.421Z,59.20
2023-05-19T10:59:51.180Z,61.24
2023-05-19T11:01:02.224Z,60.31
2023-05-19T11:02:06.463Z,60.79
2023-05-19T11:03:17.589Z,60.45
2023-05-19T11:04:21.300Z,58.34
2023-05-19T11:05:31.101Z,58.58
2023-05-19T11:06:37.632Z,58.30
2023-05-19T11:07:43.615Z,59.13
2023-05-19T11:08:46.582Z,58.77
2023-05-19T11:09:53.875Z,59.19
2023-05-19T11:10:57.200Z,58.52
2023-05-19T11:12:07.315Z,59.52
2023-05-19T11:13:22.730Z,56.28
2023-05-19T11:14:28.695Z,55.91
2023-05-19T11:15:37.386Z,57.52
2023-05-19T11:16:44.426Z,59.75
2023-05-19T11:17:49.790Z,58.01
2023-05-19T11:18:55.528Z,57.99
2023-05-19T11:20:00.585Z,58.13
2023-05-19T11:21:06.319Z,59.21
2023-05-19T11:22:14.340Z,58.55
2023-05-19T11:23:19.742Z,58.82
2023-05-19T11:24:38.713Z,58.87
2023-05-19T11:25:52.569Z,58.68
2023-05-19T11:26:57.564Z,59.05
2023-05-19T11:28:01.375Z,60.03
2023-05-19T11:29:04.841Z,60.63
2023-05-19T11:30:08.825Z,59.83
2023-05-19T11:31:12.688Z,60.36
2023-05-19T11:32:16.495Z,59.58
2023-05-19T11:33:21.740Z,59.37
2023-05-19T11:34:27.236Z,59.44
2023-05-19T11:35:32.658Z,61.68
2023-05-19T11:36:41.278Z,60.85
2023-05-19T11:37:44.296Z,61.80
2023-05-19T11:38:48.602Z,62.20
2023-05-19T11:39:52.011Z,62.67
2023-05-19T11:40:55.935Z,62.02
2023-05-19T11:41:58.818Z,61.64
2023-05-19T11:43:03.278Z,60.39
2023-05-19T11:44:11.276Z,59.88
2023-05-19T11:45:14.247Z,58.66
2023-05-19T11:46:17.716Z,58.39
2023-05-19T11:47:20.655Z,59.19
2023-05-19T11:48:24.095Z,59.85
2023-05-19T11:49:27.028Z,59.21
2023-05-19T11:50:30.188Z,59.93
2023-05-19T11:51:33.990Z,60.45
2023-05-19T11:52:37.081Z,60.59
2023-05-19T11:53:40.159Z,60.69
2023-05-19T11:54:45.539Z,60.53
2023-05-19T11:55:49.833Z,61.36
2023-05-19T11:56:53.063Z,60.04
2023-05-19T11:58:05.161Z,59.79
2023-05-19T11:59:09.482Z,61.17
2023-05-19T12:00:13.707Z,61.29
2023-05-19T12:01:16.571Z,62.05
2023-05-19T12:02:26.161Z,61.59
2023-05-19T12:03:30.008Z,58.82
2023-05-19T12:04:33.472Z,58.92
2023-05-19T12:05:43.128Z,58.85
2023-05-19T12:06:50.497Z,57.50
2023-05-19T12:07:54.243Z,58.15
2023-05-19T12:08:57.364Z,58.13
2023-05-19T12:10:01.453Z,57.91
2023-05-19T12:11:04.466Z,58.04
2023-05-19T12:12:07.535Z,58.63
2023-05-19T12:13:11.202Z,59.04
2023-05-19T12:14:14.409Z,58.87
2023-05-19T12:15:22.195Z,59.12
2023-05-19T12:16:25.239Z,59.04
2023-05-19T12:17:28.108Z,58.42
2023-05-19T12:18:33.057Z,57.11
2023-05-19T12:19:35.981Z,56.55
2023-05-19T12:20:39.201Z,56.46
2023-05-19T12:21:42.627Z,56.35
2023-05-19T12:22:45.744Z,56.26
2023-05-19T12:23:48.987Z,57.38
2023-05-19T12:24:52.424Z,57.55
2023-05-19T12:25:55.499Z,56.45
2023-05-19T12:27:21.887Z,56.52
2023-05-19T12:28:24.822Z,56.94
2023-05-19T12:29:30.430Z,58.56
2023-05-19T12:30:35.073Z,60.73
2023-05-19T12:31:39.223Z,59.70
2023-05-19T12:32:42.309Z,57.71
2023-05-19T12:33:45.223Z,58.16
2023-05-19T12:34:48.721Z,56.99
2023-05-19T12:35:52.397Z,56.66
2023-05-19T12:36:55.278Z,56.21
2023-05-19T12:37:58.911Z,57.04
2023-05-19T12:39:02.073Z,55.77
2023-05-19T12:40:05.630Z,55.66
2023-05-19T12:41:08.577Z,56.08
2023-05-19T12:42:13.700Z,54.89
2023-05-19T12:43:23.752Z,55.28
2023-05-19T12:44:26.925Z,54.87
2023-05-19T12:45:29.899Z,53.84
2023-05-19T12:46:34.656Z,53.74
2023-05-19T12:47:37.889Z,53.52
2023-05-19T12:48:48.088Z,52.85
2023-05-19T12:50:03.372Z,51.55
2023-05-19T12:51:06.939Z,50.48
2023-05-19T12:52:12.752Z,51.82
2023-05-19T12:53:16.908Z,52.25
2023-05-19T12:54:23.503Z,51.60
2023-05-19T12:55:26.909Z,51.13
2023-05-19T12:56:30.272Z,50.92
2023-05-19T12:57:36.195Z,48.99
2023-05-19T12:58:40.170Z,50.57
2023-05-19T12:59:44.413Z,48.86
2023-05-19T13:00:51.758Z,49.32
2023-05-19T13:02:01.390Z,49.58
2023-05-19T13:03:09.003Z,50.49
2023-05-19T13:04:12.089Z,51.09
2023-05-19T13:05:15.038Z,51.24
2023-05-19T13:06:17.942Z,51.14
2023-05-19T13:07:21.861Z,50.97
2023-05-19T13:08:25.964Z,50.24
2023-05-19T13:09:29.908Z,50.00
2023-05-19T13:10:33.508Z,52.45
2023-05-19T13:11:36.690Z,52.92
2023-05-19T13:12:39.598Z,52.41
2023-05-19T13:13:42.664Z,50.68
2023-05-19T13:14:46.018Z,50.96
2023-05-19T13:15:52.298Z,49.81
2023-05-19T13:16:55.186Z,48.88
2023-05-19T13:17:58.081Z,49.27
2023-05-19T13:19:01.476Z,50.29
2023-05-19T13:20:06.035Z,49.06
2023-05-19T13:21:09.002Z,49.06
2023-05-19T13:22:11.889Z,49.13
2023-05-19T13:23:15.537Z,49.22
2023-05-19T13:24:18.464Z,50.12
2023-05-19T13:25:22.673Z,49.36
2023-05-19T13:26:25.579Z,48.08
2023-05-19T13:27:28.473Z,48.55
2023-05-19T13:28:31.474Z,48.53
2023-05-19T13:29:34.320Z,48.72
2023-05-19T13:30:39.849Z,50.07
2023-05-19T13:31:42.808Z,50.28
2023-05-19T13:32:46.614Z,49.85
2023-05-19T13:33:49.615Z,48.40
2023-05-19T13:34:52.476Z,49.94
2023-05-19T13:35:55.378Z,51.99
2023-05-19T13:36:58.293Z,52.08
2023-05-19T13:38:01.360Z,51.03
2023-05-19T13:39:04.283Z,50.27
2023-05-19T13:40:08.028Z,49.41
2023-05-19T13:41:11.123Z,48.34
2023-05-19T13:42:14.469Z,48.80
2023-05-19T13:43:17.470Z,49.37
2023-05-19T13:44:20.362Z,48.62
2023-05-19T13:45:23.256Z,47.80
2023-05-19T13:46:36.537Z,49.21
2023-05-19T13:47:46.795Z,49.34
2023-05-19T13:48:49.716Z,50.16
2023-05-19T13:49:53.177Z,50.53
2023-05-19T13:50:56.988Z,49.40
2023-05-19T13:51:59.931Z,48.97
2023-05-19T13:53:02.828Z,48.54
2023-05-19T13:54:06.308Z,49.19